Early, IA (50535)

3:25 AM CDT on September 05, 2015 (GMT -0500)
Storm Lake Municipal | | Change Station
CLOSE
Current Station
Airport
Location: Storm Lake,
Elevation: 1490 ft
Nearby Weather Stations

Elev 1490 ft 42.60 °N, 95.24 °W | Updated 10 minutes ago

Partly Cloudy
Partly Cloudy
72 °F
Feels Like 72 °F
N
9
Wind Variable Wind from South

Today
High -- | Low -- °F
--% Chance of Precip.
Yesterday
High -- | Low -- °F
Precip. -- in
6:49 AM 7:47 PM
Waning Gibbous, 51% visible
Pressure 29.95 in
Visibility 8.0 miles
Clouds Few 2400 ft
Scattered Clouds 6500 ft
Mostly Cloudy 9000 ft
Dew Point 70 °F
Humidity 94%
Rainfall 0.00 in
Snow Depth Not available.
UV 0 out of 12
Pollen 9.50 out of 12
Air Quality Not available.
Flu Activity Not available.
METAR KSLB 050815Z AUTO 17008KT 8SM FEW024 SCT065 BKN090 22/21 A2995 RMK AO2
Pressure 29.95 in
Visibility 8.0 miles
Clouds Few 2400 ft
Scattered Clouds 6500 ft
Mostly Cloudy 9000 ft
Dew Point 70 °F
Humidity 94%
Rainfall 0.00 in
Snow Depth Not available.
UV 0 out of 12
Pollen 9.50 out of 12
Air Quality Not available.
Flu Activity Not available.
METAR KSLB 050815Z AUTO 17008KT 8SM FEW024 SCT065 BKN090 22/21 A2995 RMK AO2

10-Day Weather Forecast

×

Almanac

Astronomy

Sep. 05, 2015 Rise Set
Actual Time
Civil Twilight
Nautical Twilight
Astronomical Twilight
Moon
Length of Visible Light
Length of Day
Tomorrow will be .
, % of the Moon is Illuminated

Today's Extremes

State Highs State Lows

Community

WunderPhotos

Upload Photos

1,852,439 photos uploaded!

WunderBlogs® & News

Nearby

Air Quality

  Air Quality AQ Index Pollutant
Not available.

Snow Depth

Station Depth Elevation

Earthquake Activity

City Distance Mag. Time & Date
Minimum magnitude displayed is 2.5.

Coastal Water Temperatures

Place Temperature

Stations

Nearby Weather Stations

Station Location Temp. Windchill Dew Point Humidity Wind Precip. Elev Updated Type